Time;durP1;ratioP1;P1;durP2;ratioP2;P2;SDS_P1;SDS_P2;PMS_P1;PMS_P2;Temp;Humidity;BMP_temperature;BMP_pressure;BME280_temperature;BME280_humidity;BME280_pressure;Samples;Min_cycle;Max_cycle;Signal;HPM_P1;HPM_P2
2023/05/12 00:01:05;;;;;;;14.23;12.73;;;;;;;;;;4947201;28;20487;-77
2023/05/12 00:03:31;;;;;;;15.40;14.00;;;;;;;;;;4955123;28;20111;-78
2023/05/12 00:05:59;;;;;;;14.30;12.93;;;;;;;;;;4954553;28;20028;-76
2023/05/12 00:08:24;;;;;;;23.17;18.13;;;;;;;;;;4943763;28;20336;-77
2023/05/12 00:10:49;;;;;;;26.52;23.73;;;;;;;;;;4955072;28;20129;-77
2023/05/12 00:13:15;;;;;;;24.75;22.05;;;;;;;;;;4952540;28;20411;-77
2023/05/12 00:15:41;;;;;;;19.35;17.45;;;;;;;;;;4954854;28;20018;-75
2023/05/12 00:18:06;;;;;;;17.65;15.95;;;;;;;;;;4955537;28;20034;-76
2023/05/12 00:20:31;;;;;;;14.88;13.40;;;;;;;;;;4957282;28;20035;-75
2023/05/12 00:22:57;;;;;;;15.52;14.00;;;;;;;;;;4967483;28;20420;-77
2023/05/12 00:25:22;;;;;;;14.23;12.43;;;;;;;;;;4953937;28;20038;-76
2023/05/12 00:27:47;;;;;;;13.38;12.07;;;;;;;;;;4952586;28;20135;-76
2023/05/12 00:30:13;;;;;;;13.85;12.45;;;;;;;;;;4951934;28;20074;-76
2023/05/12 00:32:38;;;;;;;13.20;11.80;;;;;;;;;;4950559;28;20042;-77
2023/05/12 00:35:04;;;;;;;12.60;11.45;;;;;;;;;;4951946;28;20019;-76
2023/05/12 00:37:29;;;;;;;11.68;10.50;;;;;;;;;;4947222;28;20030;-78
2023/05/12 00:39:54;;;;;;;10.43;9.52;;;;;;;;;;4949627;28;20038;-77
2023/05/12 00:42:20;;;;;;;12.27;11.13;;;;;;;;;;4945776;28;20505;-76
2023/05/12 00:44:46;;;;;;;12.77;11.43;;;;;;;;;;4952433;28;20383;-76
2023/05/12 00:47:13;;;;;;;11.23;10.10;;;;;;;;;;4954081;28;20049;-74
2023/05/12 00:49:41;;;;;;;10.43;9.43;;;;;;;;;;4952127;28;20077;-77
2023/05/12 00:52:06;;;;;;;15.25;10.70;;;;;;;;;;4953868;28;20031;-74
2023/05/12 00:54:32;;;;;;;11.05;9.70;;;;;;;;;;4953942;28;20435;-75
2023/05/12 00:56:58;;;;;;;10.73;9.60;;;;;;;;;;4956998;28;20019;-76
2023/05/12 00:59:23;;;;;;;10.77;9.88;;;;;;;;;;4954119;28;20416;-77
2023/05/12 01:01:49;;;;;;;10.85;9.63;;;;;;;;;;4955155;28;20023;-76
2023/05/12 01:04:14;;;;;;;10.23;9.20;;;;;;;;;;4948000;28;20023;-78
2023/05/12 01:06:46;;;;;;;9.18;7.85;;;;;;;;;;4957828;28;20027;-77
2023/05/12 01:09:11;;;;;;;9.93;8.98;;;;;;;;;;4956551;28;20030;-77
2023/05/12 01:11:37;;;;;;;9.10;7.68;;;;;;;;;;4953987;28;20026;-77
2023/05/12 01:14:02;;;;;;;11.07;8.63;;;;;;;;;;4956404;28;20026;-77
2023/05/12 01:16:30;;;;;;;11.60;9.30;;;;;;;;;;4956478;28;20081;-77
2023/05/12 01:18:56;;;;;;;9.88;8.73;;;;;;;;;;4954126;28;20030;-76
2023/05/12 01:21:22;;;;;;;9.77;8.88;;;;;;;;;;4953876;28;20852;-77
2023/05/12 01:23:56;;;;;;;9.38;8.50;;;;;;;;;;4945746;28;20027;-76
2023/05/12 01:26:21;;;;;;;9.35;8.05;;;;;;;;;;4958560;28;20101;-77
2023/05/12 01:28:47;;;;;;;8.50;7.60;;;;;;;;;;4958289;28;20122;-77
2023/05/12 01:31:12;;;;;;;9.13;8.07;;;;;;;;;;4957842;28;20058;-76
2023/05/12 01:33:38;;;;;;;8.00;7.30;;;;;;;;;;4954741;28;20054;-77
2023/05/12 01:36:04;;;;;;;10.77;8.88;;;;;;;;;;4955128;28;20034;-77
2023/05/12 01:38:29;;;;;;;10.05;8.60;;;;;;;;;;4956041;28;20042;-78
2023/05/12 01:40:55;;;;;;;10.90;8.40;;;;;;;;;;4956119;28;20059;-78
2023/05/12 01:43:20;;;;;;;9.43;8.38;;;;;;;;;;4947225;28;20039;-78
2023/05/12 01:45:45;;;;;;;8.25;7.45;;;;;;;;;;4957667;28;20030;-76
2023/05/12 01:48:11;;;;;;;8.73;7.85;;;;;;;;;;4958519;28;20737;-78
2023/05/12 01:50:36;;;;;;;10.10;8.57;;;;;;;;;;4956146;28;21066;-77
2023/05/12 01:53:01;;;;;;;8.20;7.35;;;;;;;;;;4958562;28;20037;-76
2023/05/12 01:55:27;;;;;;;8.25;7.43;;;;;;;;;;4957615;28;20031;-77
2023/05/12 01:57:52;;;;;;;9.40;7.72;;;;;;;;;;4960117;28;20023;-76
2023/05/12 02:00:18;;;;;;;9.50;8.52;;;;;;;;;;4955843;28;20072;-78
2023/05/12 02:02:43;;;;;;;9.80;7.75;;;;;;;;;;4954705;28;20041;-76
2023/05/12 02:05:08;;;;;;;10.20;8.45;;;;;;;;;;4956789;28;20118;-79
2023/05/12 02:07:34;;;;;;;13.23;7.85;;;;;;;;;;4956766;28;20020;-77
2023/05/12 02:09:59;;;;;;;9.93;8.50;;;;;;;;;;4956270;28;20034;-76
2023/05/12 02:12:24;;;;;;;12.43;8.73;;;;;;;;;;4955605;28;20106;-78
2023/05/12 02:14:50;;;;;;;10.27;9.07;;;;;;;;;;4955526;28;20347;-76
2023/05/12 02:17:16;;;;;;;10.95;9.30;;;;;;;;;;4956519;28;20109;-76
2023/05/12 02:19:41;;;;;;;11.13;9.55;;;;;;;;;;4956012;28;20026;-76
2023/05/12 02:22:07;;;;;;;9.48;8.63;;;;;;;;;;4953774;28;20111;-77
2023/05/12 02:24:32;;;;;;;10.27;8.68;;;;;;;;;;4976522;28;20471;-78
2023/05/12 02:26:57;;;;;;;10.65;9.55;;;;;;;;;;4956017;28;20031;-75
2023/05/12 02:29:23;;;;;;;12.13;9.95;;;;;;;;;;4955630;28;20023;-77
2023/05/12 02:31:48;;;;;;;9.63;8.68;;;;;;;;;;4953935;28;20090;-78
2023/05/12 02:34:13;;;;;;;14.80;9.50;;;;;;;;;;4955846;28;20029;-76
2023/05/12 02:36:39;;;;;;;9.90;8.93;;;;;;;;;;4954892;28;20363;-76
2023/05/12 02:39:04;;;;;;;12.73;9.90;;;;;;;;;;4958100;28;20121;-77
2023/05/12 02:41:29;;;;;;;11.73;10.60;;;;;;;;;;4955884;28;20051;-78
2023/05/12 02:43:55;;;;;;;10.57;9.68;;;;;;;;;;4955272;28;20447;-76
2023/05/12 02:46:20;;;;;;;9.85;8.90;;;;;;;;;;4945147;28;20023;-79
2023/05/12 02:48:46;;;;;;;11.63;9.73;;;;;;;;;;4955341;28;20030;-77
2023/05/12 02:51:11;;;;;;;10.98;9.20;;;;;;;;;;4954931;28;20034;-78
2023/05/12 02:53:36;;;;;;;10.23;9.25;;;;;;;;;;4955638;28;20023;-79
2023/05/12 02:56:02;;;;;;;11.38;9.52;;;;;;;;;;4955594;28;20065;-78
2023/05/12 02:58:27;;;;;;;10.10;9.10;;;;;;;;;;4954980;28;20035;-77
2023/05/12 03:00:52;;;;;;;10.10;9.15;;;;;;;;;;4954570;28;20039;-77
2023/05/12 03:03:18;;;;;;;13.68;10.05;;;;;;;;;;4956995;28;20442;-76
2023/05/12 03:05:43;;;;;;;10.15;9.25;;;;;;;;;;4954093;28;20045;-77
2023/05/12 03:08:09;;;;;;;9.73;8.73;;;;;;;;;;4953612;28;20102;-76
2023/05/12 03:10:34;;;;;;;10.20;9.20;;;;;;;;;;4949146;28;20442;-79
2023/05/12 03:12:59;;;;;;;10.70;9.70;;;;;;;;;;4951969;28;20081;-77
2023/05/12 03:15:25;;;;;;;12.13;9.45;;;;;;;;;;4955764;28;20030;-77
2023/05/12 03:17:50;;;;;;;11.68;9.90;;;;;;;;;;4947094;28;20105;-77
2023/05/12 03:20:16;;;;;;;10.88;9.77;;;;;;;;;;4951628;28;20023;-79
2023/05/12 03:22:41;;;;;;;12.15;9.63;;;;;;;;;;4968006;28;20446;-77
2023/05/12 03:25:08;;;;;;;11.20;10.13;;;;;;;;;;4954053;28;20030;-78
2023/05/12 03:27:33;;;;;;;12.07;10.88;;;;;;;;;;4944087;28;20078;-77
2023/05/12 03:30:03;;;;;;;15.00;11.02;;;;;;;;;;4943539;28;22076;-76
2023/05/12 03:32:29;;;;;;;11.48;10.35;;;;;;;;;;4967450;28;20037;-79
2023/05/12 03:34:54;;;;;;;12.05;10.68;;;;;;;;;;4955874;28;20122;-78
2023/05/12 03:37:20;;;;;;;11.77;10.63;;;;;;;;;;4953611;28;20027;-77
2023/05/12 03:39:45;;;;;;;10.50;9.60;;;;;;;;;;4960892;28;20026;-78
2023/05/12 03:42:11;;;;;;;11.45;10.35;;;;;;;;;;4938246;28;20055;-78
2023/05/12 03:44:36;;;;;;;12.02;10.77;;;;;;;;;;4934084;28;20110;-78
2023/05/12 03:47:01;;;;;;;11.73;10.65;;;;;;;;;;4937916;28;20034;-78
2023/05/12 03:49:27;;;;;;;11.52;10.35;;;;;;;;;;4948346;28;20034;-77
2023/05/12 03:51:52;;;;;;;12.05;10.85;;;;;;;;;;4938253;28;21222;-77
2023/05/12 03:54:17;;;;;;;12.25;10.82;;;;;;;;;;4936171;28;20034;-78
2023/05/12 03:56:43;;;;;;;11.93;10.73;;;;;;;;;;4941304;28;20446;-78
2023/05/12 03:59:10;;;;;;;11.32;10.13;;;;;;;;;;4937170;28;20293;-77
2023/05/12 04:01:36;;;;;;;12.38;11.15;;;;;;;;;;4945459;28;20034;-77
2023/05/12 04:04:01;;;;;;;13.05;11.32;;;;;;;;;;4943680;28;20027;-77
2023/05/12 04:06:26;;;;;;;11.98;10.20;;;;;;;;;;4952562;28;20026;-78
2023/05/12 04:08:52;;;;;;;11.70;10.52;;;;;;;;;;4940383;28;20043;-76
2023/05/12 04:11:17;;;;;;;11.93;10.63;;;;;;;;;;4940658;28;20567;-78
2023/05/12 04:13:43;;;;;;;11.95;10.77;;;;;;;;;;4951945;28;20030;-78
2023/05/12 04:16:08;;;;;;;11.52;10.43;;;;;;;;;;4952303;28;20031;-77
2023/05/12 04:18:35;;;;;;;15.05;13.43;;;;;;;;;;4952455;28;20038;-78
2023/05/12 04:21:01;;;;;;;114.18;75.85;;;;;;;;;;4943627;28;20094;-78
2023/05/12 04:23:27;;;;;;;111.43;76.35;;;;;;;;;;4955070;28;20031;-77
2023/05/12 04:25:52;;;;;;;58.88;42.97;;;;;;;;;;4950264;28;20038;-78
2023/05/12 04:28:17;;;;;;;92.18;71.55;;;;;;;;;;4944267;28;20046;-77
2023/05/12 04:30:43;;;;;;;71.90;61.75;;;;;;;;;;4954513;28;20530;-78
2023/05/12 04:33:08;;;;;;;25.40;22.75;;;;;;;;;;4953538;28;20106;-79
2023/05/12 04:35:34;;;;;;;24.30;21.67;;;;;;;;;;4953959;28;20027;-77
2023/05/12 04:38:03;;;;;;;33.30;29.98;;;;;;;;;;4945656;28;20033;-78
2023/05/12 04:40:28;;;;;;;29.85;26.75;;;;;;;;;;4950017;28;20035;-79
2023/05/12 04:42:54;;;;;;;36.60;32.88;;;;;;;;;;4949432;28;20023;-79
2023/05/12 04:45:19;;;;;;;75.15;67.22;;;;;;;;;;4957284;28;20037;-78
2023/05/12 04:47:45;;;;;;;32.45;29.42;;;;;;;;;;4956609;28;20402;-77
2023/05/12 04:50:10;;;;;;;51.00;45.67;;;;;;;;;;4958203;28;20043;-77
2023/05/12 04:52:36;;;;;;;17.75;16.05;;;;;;;;;;4960356;28;20090;-77
2023/05/12 04:55:01;;;;;;;14.52;13.10;;;;;;;;;;4958909;28;20407;-79
2023/05/12 04:57:27;;;;;;;18.58;16.23;;;;;;;;;;4958533;28;20042;-79
2023/05/12 04:59:52;;;;;;;14.52;13.10;;;;;;;;;;4958290;28;20450;-78
2023/05/12 05:02:17;;;;;;;13.40;12.02;;;;;;;;;;4957658;28;20038;-77
2023/05/12 05:04:43;;;;;;;27.23;24.48;;;;;;;;;;4954586;28;20022;-78
2023/05/12 05:07:08;;;;;;;17.42;15.68;;;;;;;;;;4957998;28;20660;-78
2023/05/12 05:09:34;;;;;;;15.52;14.07;;;;;;;;;;4957246;28;20023;-79
2023/05/12 05:11:59;;;;;;;14.00;12.70;;;;;;;;;;4956790;28;20035;-80
2023/05/12 05:14:24;;;;;;;14.30;13.10;;;;;;;;;;4973639;28;20031;-77
2023/05/12 05:16:50;;;;;;;12.98;11.68;;;;;;;;;;4958653;28;20027;-79
2023/05/12 05:19:15;;;;;;;12.98;11.82;;;;;;;;;;4956157;28;20398;-78
2023/05/12 05:21:41;;;;;;;11.10;10.10;;;;;;;;;;4957777;28;20082;-77
2023/05/12 05:24:06;;;;;;;10.13;9.18;;;;;;;;;;4956914;28;20351;-79
2023/05/12 05:26:32;;;;;;;10.95;9.82;;;;;;;;;;4958387;28;20077;-78
2023/05/12 05:28:57;;;;;;;12.90;11.70;;;;;;;;;;4959332;28;20038;-79
2023/05/12 05:31:22;;;;;;;16.17;14.75;;;;;;;;;;4961875;28;20443;-76
2023/05/12 05:33:48;;;;;;;18.27;16.50;;;;;;;;;;4954080;28;20031;-78
2023/05/12 05:36:13;;;;;;;17.27;15.10;;;;;;;;;;4972403;28;20027;-79
2023/05/12 05:38:39;;;;;;;11.45;10.38;;;;;;;;;;4958892;28;20359;-79
2023/05/12 05:41:04;;;;;;;13.65;11.45;;;;;;;;;;4958372;28;20059;-75
2023/05/12 05:43:30;;;;;;;15.02;13.55;;;;;;;;;;4956278;28;20510;-78
2023/05/12 05:45:56;;;;;;;14.20;11.65;;;;;;;;;;4958877;28;20471;-76
2023/05/12 05:48:22;;;;;;;12.18;11.00;;;;;;;;;;4957888;28;20027;-78
2023/05/12 05:50:47;;;;;;;15.57;13.98;;;;;;;;;;4957618;28;20101;-78
2023/05/12 05:53:13;;;;;;;12.10;9.15;;;;;;;;;;4957386;28;20019;-79
2023/05/12 05:55:38;;;;;;;9.32;8.18;;;;;;;;;;4957755;28;20097;-77
2023/05/12 05:58:04;;;;;;;15.35;13.88;;;;;;;;;;4956551;28;20038;-80
2023/05/12 06:00:29;;;;;;;31.60;28.58;;;;;;;;;;4943957;28;20038;-79
2023/05/12 06:02:55;;;;;;;13.57;12.48;;;;;;;;;;4945440;28;20050;-77
2023/05/12 06:05:20;;;;;;;8.68;7.93;;;;;;;;;;4944170;28;20058;-76
2023/05/12 06:07:45;;;;;;;9.82;8.88;;;;;;;;;;4943484;28;20023;-76
2023/05/12 06:10:11;;;;;;;14.52;13.15;;;;;;;;;;4946332;28;20035;-79
2023/05/12 06:12:36;;;;;;;13.20;12.00;;;;;;;;;;4946723;28;20078;-77
2023/05/12 06:15:01;;;;;;;12.15;10.95;;;;;;;;;;4946719;28;20109;-77
2023/05/12 06:17:27;;;;;;;14.02;12.70;;;;;;;;;;4943195;28;20031;-76
2023/05/12 06:19:52;;;;;;;23.92;21.40;;;;;;;;;;4945934;28;20034;-78
2023/05/12 06:22:18;;;;;;;13.93;12.02;;;;;;;;;;4943069;28;20035;-81
2023/05/12 06:24:43;;;;;;;12.48;11.20;;;;;;;;;;4944821;28;20557;-76
2023/05/12 06:27:08;;;;;;;11.02;9.93;;;;;;;;;;4947455;28;20051;-76
2023/05/12 06:29:34;;;;;;;12.30;11.07;;;;;;;;;;4957277;28;20038;-78
2023/05/12 06:31:59;;;;;;;10.02;9.05;;;;;;;;;;4970234;28;20050;-79
2023/05/12 06:34:25;;;;;;;8.43;7.55;;;;;;;;;;4955989;28;20375;-76
2023/05/12 06:36:50;;;;;;;10.27;9.27;;;;;;;;;;4954570;28;20027;-76
2023/05/12 06:39:15;;;;;;;18.75;16.75;;;;;;;;;;4958178;28;20023;-76
2023/05/12 06:41:41;;;;;;;11.77;10.68;;;;;;;;;;4954943;28;20081;-78
2023/05/12 06:44:11;;;;;;;9.20;8.30;;;;;;;;;;4957287;28;20023;-77
2023/05/12 06:46:36;;;;;;;12.00;10.93;;;;;;;;;;4952044;28;20101;-78
2023/05/12 06:49:02;;;;;;;9.60;8.70;;;;;;;;;;4955908;28;20030;-77
2023/05/12 06:51:27;;;;;;;10.57;9.57;;;;;;;;;;4958355;28;20045;-77
2023/05/12 06:53:53;;;;;;;11.35;10.15;;;;;;;;;;4955407;28;20027;-76
2023/05/12 06:56:18;;;;;;;15.40;13.90;;;;;;;;;;4959180;28;20508;-78
2023/05/12 06:58:43;;;;;;;8.50;7.70;;;;;;;;;;4946395;28;20030;-77
2023/05/12 07:01:09;;;;;;;11.00;9.90;;;;;;;;;;4942430;28;20179;-78
2023/05/12 07:03:34;;;;;;;6.63;6.05;;;;;;;;;;4948077;28;20037;-78
2023/05/12 07:06:00;;;;;;;7.22;6.63;;;;;;;;;;4942832;28;20053;-75
2023/05/12 07:08:26;;;;;;;5.75;5.25;;;;;;;;;;4946192;28;20371;-77
2023/05/12 07:10:51;;;;;;;8.48;7.63;;;;;;;;;;4945127;28;20034;-77
2023/05/12 07:13:16;;;;;;;8.05;6.60;;;;;;;;;;4952903;28;20031;-77
2023/05/12 07:15:42;;;;;;;5.13;4.63;;;;;;;;;;4959918;28;20338;-78
2023/05/12 07:18:07;;;;;;;5.75;5.25;;;;;;;;;;4955778;28;20034;-75
2023/05/12 07:20:32;;;;;;;5.15;4.57;;;;;;;;;;4951630;28;20107;-75
2023/05/12 07:22:58;;;;;;;8.20;7.45;;;;;;;;;;4944707;28;20069;-77
2023/05/12 07:25:23;;;;;;;4.40;4.05;;;;;;;;;;4939014;28;20030;-76
2023/05/12 07:27:49;;;;;;;8.43;4.90;;;;;;;;;;4942606;28;20037;-75
2023/05/12 07:30:15;;;;;;;5.13;4.53;;;;;;;;;;4968046;28;20344;-74
2023/05/12 07:32:40;;;;;;;6.90;5.93;;;;;;;;;;4954108;28;20438;-77
2023/05/12 07:35:06;;;;;;;5.38;4.65;;;;;;;;;;4955386;28;20015;-74
2023/05/12 07:37:31;;;;;;;5.22;4.70;;;;;;;;;;4946037;28;20074;-77
2023/05/12 07:39:57;;;;;;;4.97;4.50;;;;;;;;;;4948828;28;20030;-76
2023/05/12 07:42:23;;;;;;;6.30;5.70;;;;;;;;;;4951151;28;20502;-75
2023/05/12 07:44:48;;;;;;;15.52;14.10;;;;;;;;;;4947292;28;20026;-77
2023/05/12 07:47:13;;;;;;;5.55;5.05;;;;;;;;;;4950304;28;20023;-76
2023/05/12 07:49:39;;;;;;;4.45;4.05;;;;;;;;;;4946648;28;20162;-76
2023/05/12 07:52:04;;;;;;;4.40;4.00;;;;;;;;;;4954364;28;20444;-77
2023/05/12 07:54:31;;;;;;;3.85;3.45;;;;;;;;;;4954941;28;20015;-78
2023/05/12 07:56:56;;;;;;;6.47;5.88;;;;;;;;;;4957493;28;20053;-78
2023/05/12 07:59:21;;;;;;;4.32;3.20;;;;;;;;;;4956366;28;20114;-78
2023/05/12 08:01:47;;;;;;;3.70;3.40;;;;;;;;;;4954791;28;20026;-78
2023/05/12 08:04:12;;;;;;;3.10;2.90;;;;;;;;;;4953521;28;20034;-77
2023/05/12 08:06:37;;;;;;;4.70;4.20;;;;;;;;;;4953376;28;20027;-77
2023/05/12 08:09:03;;;;;;;4.55;4.05;;;;;;;;;;4954886;28;20539;-77
2023/05/12 08:11:28;;;;;;;3.28;2.70;;;;;;;;;;4954345;28;20038;-78
2023/05/12 08:13:54;;;;;;;7.90;3.20;;;;;;;;;;4957242;28;20324;-77
2023/05/12 08:16:20;;;;;;;4.60;4.13;;;;;;;;;;4958579;28;20035;-78
2023/05/12 08:18:46;;;;;;;7.03;6.00;;;;;;;;;;4957278;28;20035;-76
2023/05/12 08:21:11;;;;;;;4.55;4.13;;;;;;;;;;4955528;28;20189;-76
2023/05/12 08:23:37;;;;;;;3.53;3.22;;;;;;;;;;4958858;28;20094;-77
2023/05/12 08:26:02;;;;;;;7.05;6.35;;;;;;;;;;4958063;28;20035;-76
2023/05/12 08:28:28;;;;;;;6.38;5.07;;;;;;;;;;4957739;28;20022;-77
2023/05/12 08:30:53;;;;;;;8.70;5.93;;;;;;;;;;4957536;28;20031;-76
2023/05/12 08:33:19;;;;;;;8.77;5.97;;;;;;;;;;4956567;28;20018;-77
2023/05/12 08:35:45;;;;;;;15.65;11.73;;;;;;;;;;4961966;28;20034;-76
2023/05/12 08:38:10;;;;;;;11.38;7.28;;;;;;;;;;4957874;28;20677;-76
2023/05/12 08:40:58;;;;;;;4.57;3.50;;;;;;;;;;4956554;28;20449;-77
2023/05/12 08:43:25;;;;;;;3.60;2.95;;;;;;;;;;4951037;28;20051;-75
2023/05/12 08:45:51;;;;;;;4.03;3.10;;;;;;;;;;4955289;28;20023;-76
2023/05/12 08:48:18;;;;;;;4.05;3.67;;;;;;;;;;4957421;28;20136;-76
2023/05/12 08:50:45;;;;;;;4.22;2.92;;;;;;;;;;4956424;28;20038;-75
2023/05/12 08:53:13;;;;;;;5.35;3.70;;;;;;;;;;4957890;28;20025;-76
2023/05/12 08:55:40;;;;;;;4.82;3.00;;;;;;;;;;4955320;28;20667;-76
2023/05/12 08:58:06;;;;;;;3.95;3.40;;;;;;;;;;4958114;28;20038;-76
2023/05/12 09:00:33;;;;;;;2.85;2.50;;;;;;;;;;4961111;28;20093;-75
2023/05/12 09:02:59;;;;;;;3.92;3.20;;;;;;;;;;4961165;28;20031;-76
2023/05/12 09:05:26;;;;;;;5.13;4.00;;;;;;;;;;4956563;28;20474;-75
2023/05/12 09:07:53;;;;;;;2.47;2.28;;;;;;;;;;4948872;28;20154;-76
2023/05/12 09:10:20;;;;;;;3.97;3.55;;;;;;;;;;4947095;28;20019;-77
2023/05/12 09:12:46;;;;;;;2.78;2.53;;;;;;;;;;4957898;28;20060;-75
2023/05/12 09:15:14;;;;;;;10.10;6.38;;;;;;;;;;4956723;28;20022;-76
2023/05/12 09:17:40;;;;;;;4.10;3.40;;;;;;;;;;4955431;28;20088;-77
2023/05/12 09:20:06;;;;;;;4.22;3.65;;;;;;;;;;4956769;28;20410;-75
2023/05/12 09:22:34;;;;;;;4.07;3.63;;;;;;;;;;4954632;28;20038;-75
2023/05/12 09:25:00;;;;;;;14.35;9.27;;;;;;;;;;4952724;28;20125;-77
2023/05/12 09:27:26;;;;;;;6.22;4.45;;;;;;;;;;4957799;28;20398;-76
2023/05/12 09:29:51;;;;;;;2.92;2.53;;;;;;;;;;4956322;28;20046;-75
2023/05/12 09:32:17;;;;;;;4.85;4.32;;;;;;;;;;4957594;28;20031;-75
2023/05/12 09:34:42;;;;;;;2.75;2.53;;;;;;;;;;4954905;28;20030;-75
2023/05/12 09:37:08;;;;;;;3.30;2.72;;;;;;;;;;4956806;28;20069;-75
2023/05/12 09:39:33;;;;;;;2.58;2.22;;;;;;;;;;4960497;28;20059;-76
2023/05/12 09:41:59;;;;;;;2.92;2.65;;;;;;;;;;4954925;28;20055;-78
2023/05/12 09:44:24;;;;;;;2.55;2.35;;;;;;;;;;4947744;28;20043;-75
2023/05/12 09:46:50;;;;;;;1.88;1.70;;;;;;;;;;4957896;28;20403;-79
2023/05/12 09:49:19;;;;;;;3.88;2.85;;;;;;;;;;4957540;28;20031;-76
2023/05/12 09:51:44;;;;;;;2.80;2.30;;;;;;;;;;4956294;28;20331;-74
2023/05/12 09:54:10;;;;;;;2.47;2.20;;;;;;;;;;4956940;28;20023;-77
2023/05/12 09:56:36;;;;;;;2.13;1.92;;;;;;;;;;4963161;28;20054;-76
2023/05/12 09:59:03;;;;;;;1.60;1.50;;;;;;;;;;4956138;28;20034;-76
2023/05/12 10:01:28;;;;;;;2.47;2.10;;;;;;;;;;4954809;28;20324;-75
2023/05/12 10:03:55;;;;;;;2.20;1.70;;;;;;;;;;4956602;28;20034;-76
2023/05/12 10:06:27;;;;;;;2.05;1.77;;;;;;;;;;4956380;28;20031;-75
2023/05/12 10:09:13;;;;;;;3.67;2.30;;;;;;;;;;4956598;28;20026;-76
2023/05/12 10:11:39;;;;;;;2.25;1.95;;;;;;;;;;4958100;28;20114;-76
2023/05/12 10:14:07;;;;;;;2.50;2.30;;;;;;;;;;4957904;28;20039;-76
2023/05/12 10:16:32;;;;;;;4.10;2.30;;;;;;;;;;4956454;28;20026;-75
2023/05/12 10:18:57;;;;;;;3.97;3.60;;;;;;;;;;4957457;28;20336;-75
2023/05/12 10:21:26;;;;;;;4.80;4.28;;;;;;;;;;4956698;28;20113;-76
2023/05/12 10:23:53;;;;;;;6.40;5.80;;;;;;;;;;4954128;28;20031;-75
2023/05/12 10:26:18;;;;;;;4.07;3.67;;;;;;;;;;4957496;28;20470;-76
2023/05/12 10:28:44;;;;;;;4.40;2.97;;;;;;;;;;4952389;28;20023;-76
2023/05/12 10:31:10;;;;;;;3.17;2.90;;;;;;;;;;4953355;28;20046;-76
2023/05/12 10:33:36;;;;;;;3.53;3.33;;;;;;;;;;4946108;28;20023;-74
2023/05/12 10:36:03;;;;;;;4.05;3.22;;;;;;;;;;4945182;28;20107;-75
2023/05/12 10:38:34;;;;;;;4.05;3.13;;;;;;;;;;4953547;28;20031;-75
2023/05/12 10:41:00;;;;;;;3.78;3.47;;;;;;;;;;4957075;28;20062;-77
2023/05/12 10:43:37;;;;;;;4.70;4.30;;;;;;;;;;4943287;28;20026;-76
2023/05/12 10:46:06;;;;;;;3.25;3.05;;;;;;;;;;4954361;28;20034;-76
2023/05/12 10:48:32;;;;;;;3.58;3.25;;;;;;;;;;4956314;28;20026;-75
2023/05/12 10:51:05;;;;;;;3.70;3.40;;;;;;;;;;4953998;28;20110;-73
2023/05/12 10:53:32;;;;;;;7.75;6.78;;;;;;;;;;4957264;28;20055;-74
2023/05/12 10:56:01;;;;;;;4.95;4.28;;;;;;;;;;4957249;28;20419;-75
2023/05/12 10:58:27;;;;;;;4.30;3.90;;;;;;;;;;4956828;28;20037;-75
2023/05/12 11:00:53;;;;;;;5.43;4.82;;;;;;;;;;4953946;28;20031;-74
2023/05/12 11:03:22;;;;;;;3.50;3.20;;;;;;;;;;4958669;28;20053;-73
2023/05/12 11:05:48;;;;;;;;;;;;;;;;;;4949824;28;20030;-74
2023/05/12 11:08:14;;;;;;;2.93;2.57;;;;;;;;;;4949815;28;19984;-75
2023/05/12 11:10:41;;;;;;;3.33;3.03;;;;;;;;;;4955758;28;20031;-75
2023/05/12 11:13:06;;;;;;;3.55;3.28;;;;;;;;;;4956174;28;20423;-74
2023/05/12 11:15:31;;;;;;;5.80;3.50;;;;;;;;;;4954684;28;20113;-75
2023/05/12 11:17:57;;;;;;;7.57;3.58;;;;;;;;;;4954709;28;20114;-75
2023/05/12 11:20:23;;;;;;;4.07;3.63;;;;;;;;;;4955359;28;20447;-74
2023/05/12 11:22:49;;;;;;;9.95;6.80;;;;;;;;;;4956006;28;20058;-75
2023/05/12 11:25:14;;;;;;;6.80;5.13;;;;;;;;;;4953429;28;20570;-76
2023/05/12 11:27:45;;;;;;;4.07;3.67;;;;;;;;;;4953623;28;20033;-75
2023/05/12 11:30:10;;;;;;;5.45;3.63;;;;;;;;;;4953392;28;20043;-75
2023/05/12 11:32:36;;;;;;;20.80;15.02;;;;;;;;;;4955219;28;20438;-75
2023/05/12 11:35:11;;;;;;;10.85;8.15;;;;;;;;;;4951220;28;20085;-76
2023/05/12 11:37:38;;;;;;;7.47;5.72;;;;;;;;;;4952151;28;20457;-76
2023/05/12 11:40:11;;;;;;;15.57;7.30;;;;;;;;;;4954921;28;20031;-75
2023/05/12 11:42:38;;;;;;;6.45;5.40;;;;;;;;;;4952604;28;20039;-76
2023/05/12 11:45:03;;;;;;;5.05;4.55;;;;;;;;;;4954047;28;20458;-76
2023/05/12 11:47:29;;;;;;;4.47;4.07;;;;;;;;;;4955503;28;20034;-76
2023/05/12 11:49:54;;;;;;;5.45;4.05;;;;;;;;;;4949844;28;20045;-74
2023/05/12 11:52:21;;;;;;;5.30;4.80;;;;;;;;;;4948983;28;20158;-75
2023/05/12 11:54:56;;;;;;;11.38;10.00;;;;;;;;;;4943798;28;20063;-75
2023/05/12 11:57:28;;;;;;;37.28;29.38;;;;;;;;;;4943658;28;20048;-75
2023/05/12 12:00:00;;;;;;;24.20;18.55;;;;;;;;;;4941886;28;20427;-75
2023/05/12 12:02:26;;;;;;;11.38;9.52;;;;;;;;;;4942864;28;20101;-75
2023/05/12 12:04:52;;;;;;;9.73;8.73;;;;;;;;;;4946655;28;20030;-74
2023/05/12 12:07:27;;;;;;;8.63;7.32;;;;;;;;;;4937725;28;20143;-75
2023/05/12 12:09:52;;;;;;;12.88;8.10;;;;;;;;;;4938197;28;22650;-74
2023/05/12 12:12:17;;;;;;;52.72;42.70;;;;;;;;;;4941503;28;20023;-74
2023/05/12 12:14:43;;;;;;;17.40;15.50;;;;;;;;;;4942687;28;20027;-74
2023/05/12 12:17:08;;;;;;;12.88;9.55;;;;;;;;;;4944751;28;20466;-75
2023/05/12 12:19:34;;;;;;;7.93;6.50;;;;;;;;;;4943952;28;20723;-72
2023/05/12 12:21:59;;;;;;;11.18;10.10;;;;;;;;;;4946144;28;20455;-72
2023/05/12 12:24:24;;;;;;;48.65;40.78;;;;;;;;;;4947545;28;20328;-73
2023/05/12 12:26:50;;;;;;;14.82;10.23;;;;;;;;;;4947305;28;20019;-73
2023/05/12 12:29:16;;;;;;;8.35;6.90;;;;;;;;;;4943675;28;20034;-73
2023/05/12 12:31:42;;;;;;;15.80;14.15;;;;;;;;;;4946100;28;20109;-73
2023/05/12 12:34:07;;;;;;;9.27;7.03;;;;;;;;;;4946706;28;20028;-72
2023/05/12 12:36:33;;;;;;;9.38;8.25;;;;;;;;;;4940300;28;20030;-72
2023/05/12 12:38:58;;;;;;;6.20;5.65;;;;;;;;;;4945525;28;20367;-71
2023/05/12 12:41:24;;;;;;;23.42;20.92;;;;;;;;;;4943542;28;20051;-73
2023/05/12 12:43:50;;;;;;;5.88;5.38;;;;;;;;;;4947986;28;20051;-72
2023/05/12 12:46:15;;;;;;;6.78;6.07;;;;;;;;;;4951774;28;20054;-72
2023/05/12 12:48:41;;;;;;;8.50;7.15;;;;;;;;;;4950322;28;20054;-72
2023/05/12 12:51:06;;;;;;;9.10;6.38;;;;;;;;;;4946142;28;20034;-72
2023/05/12 12:53:31;;;;;;;4.03;3.72;;;;;;;;;;4950745;28;20042;-73
2023/05/12 12:55:57;;;;;;;5.47;4.97;;;;;;;;;;4950992;28;20035;-72
2023/05/12 12:58:22;;;;;;;5.43;4.95;;;;;;;;;;4956762;28;20443;-71
2023/05/12 13:00:48;;;;;;;12.02;10.65;;;;;;;;;;4952555;28;20509;-73
2023/05/12 13:03:13;;;;;;;11.90;9.98;;;;;;;;;;4954769;28;20035;-73
2023/05/12 13:05:38;;;;;;;5.10;4.30;;;;;;;;;;4952270;28;20042;-73
2023/05/12 13:08:04;;;;;;;7.03;3.33;;;;;;;;;;4951497;28;20018;-74
2023/05/12 13:10:29;;;;;;;16.70;9.88;;;;;;;;;;4944585;28;20042;-74
2023/05/12 13:12:55;;;;;;;12.05;10.57;;;;;;;;;;4949374;28;20030;-74
2023/05/12 13:15:20;;;;;;;8.55;6.78;;;;;;;;;;4947770;28;20027;-73
2023/05/12 13:17:45;;;;;;;3.92;3.60;;;;;;;;;;4947236;28;20046;-74
2023/05/12 13:20:12;;;;;;;4.22;3.83;;;;;;;;;;4957233;28;20062;-74
2023/05/12 13:22:38;;;;;;;5.75;4.40;;;;;;;;;;4971950;28;20031;-74
2023/05/12 13:25:06;;;;;;;8.05;5.90;;;;;;;;;;4955849;28;20027;-74
2023/05/12 13:27:31;;;;;;;9.55;7.82;;;;;;;;;;4944230;28;20039;-73
2023/05/12 13:29:57;;;;;;;6.40;4.55;;;;;;;;;;4955604;28;21166;-73
2023/05/12 13:32:22;;;;;;;4.88;4.38;;;;;;;;;;4957731;28;20145;-74
2023/05/12 13:34:47;;;;;;;6.38;5.45;;;;;;;;;;4955692;28;20063;-74
2023/05/12 13:37:13;;;;;;;8.45;4.88;;;;;;;;;;4946268;28;20426;-72
2023/05/12 13:39:38;;;;;;;9.18;6.22;;;;;;;;;;4956745;28;20031;-73
2023/05/12 13:42:04;;;;;;;4.30;3.90;;;;;;;;;;4956219;28;20051;-74
2023/05/12 13:44:29;;;;;;;6.30;4.28;;;;;;;;;;4956938;28;20034;-72
2023/05/12 13:46:54;;;;;;;5.55;4.70;;;;;;;;;;4954408;28;20042;-73
2023/05/12 13:49:20;;;;;;;9.75;5.00;;;;;;;;;;4956023;28;20533;-73
2023/05/12 13:51:45;;;;;;;7.30;5.22;;;;;;;;;;4955876;28;20034;-71
2023/05/12 13:54:10;;;;;;;5.75;5.15;;;;;;;;;;4958549;28;20031;-74
2023/05/12 13:56:36;;;;;;;6.93;5.50;;;;;;;;;;4956357;28;20134;-74
2023/05/12 13:59:02;;;;;;;8.15;5.97;;;;;;;;;;4953593;28;20035;-72
2023/05/12 14:01:27;;;;;;;7.43;5.55;;;;;;;;;;4956155;28;20501;-72
2023/05/12 14:03:53;;;;;;;9.80;5.38;;;;;;;;;;4954860;28;20130;-72
2023/05/12 14:06:18;;;;;;;7.93;6.38;;;;;;;;;;4953919;28;20423;-72
2023/05/12 14:08:43;;;;;;;6.85;5.88;;;;;;;;;;4953847;28;20035;-72
2023/05/12 14:11:10;;;;;;;5.82;5.28;;;;;;;;;;4959070;28;20031;-73
2023/05/12 14:13:35;;;;;;;10.70;4.88;;;;;;;;;;4953194;28;20031;-73
2023/05/12 14:16:00;;;;;;;5.18;4.65;;;;;;;;;;4957523;28;20027;-73
2023/05/12 14:18:26;;;;;;;8.88;5.68;;;;;;;;;;4957758;28;20448;-73
2023/05/12 14:20:52;;;;;;;7.93;5.70;;;;;;;;;;4956609;28;20350;-73
2023/05/12 14:23:17;;;;;;;9.80;5.78;;;;;;;;;;4954646;28;20027;-73
2023/05/12 14:25:42;;;;;;;6.80;4.90;;;;;;;;;;4954669;28;20031;-73